CheckWX is a tool to help pilots better visualize weather data.  It is not intended as a substitute for an official pre-flight weather briefing.

03:35:59 UTC

KSEZ METAR
Sedona Airport
Sedona, Arizona, USA
Current

21 mins ago

KSEZ 270315Z AUTO 17007G14KT 130V190 10SM BKN065 OVC075 15/01 A2990 RMK AO2
Observed
May-27 @ 03:15 UTC
Wind
  • 170° at 7 KTS
  • Gusting to 14 KTS
Visibility
10 SM
Flight Rules
VFR
Cloud Levels
  • Broken at 6,500' AGL
  • Overcast at 7,500' AGL
Temperature
15°C / 59°F
Dewpoint
C / 34°F
Humidity
39%
Altimeter
29.9" Hg
Pressure
1012.52 hPa
Previous

41 mins ago

KSEZ 270255Z AUTO 17010G17KT 10SM OVC065 15/01 A2991 RMK AO2
Observed
May-27 @ 02:55 UTC
Wind
  • 170° at 10 KTS
  • Gusting to 17 KTS
Visibility
10 SM
Flight Rules
VFR
Cloud Levels
  • Overcast at 6,500' AGL
Temperature
15°C / 59°F
Dewpoint
C / 34°F
Humidity
39%
Altimeter
29.91" Hg
Pressure
1012.92 hPa
Previous

2 hours ago

KSEZ 270155Z AUTO 20014G22KT 10SM SCT120 16/00 A2989 RMK AO2
Observed
May-27 @ 01:55 UTC
Wind
  • 200° at 14 KTS
  • Gusting to 22 KTS
Visibility
10 SM
Flight Rules
VFR
Cloud Levels
  • Scattered at 12,000' AGL
Temperature
16°C / 61°F
Dewpoint
C / 32°F
Humidity
34%
Altimeter
29.89" Hg
Pressure
1012.22 hPa